Time;durP1;ratioP1;P1;durP2;ratioP2;P2;SDS_P1;SDS_P2;PMS_P1;PMS_P2;Temp;Humidity;BMP_temperature;BMP_pressure;BME280_temperature;BME280_humidity;BME280_pressure;Samples;Min_cycle;Max_cycle;Signal;HPM_P1;HPM_P2
2022/05/24 00:02:03;;;;;;;1.83;1.43;;;20.80;52.10;;;;;;20588;6890;120661;-77
2022/05/24 00:04:28;;;;;;;2.20;1.53;;;20.70;52.20;;;;;;20401;6890;282526;-76
2022/05/24 00:06:54;;;;;;;1.50;1.40;;;20.90;51.70;;;;;;20616;6890;117574;-76
2022/05/24 00:09:21;;;;;;;1.67;1.48;;;20.90;52.00;;;;;;20404;6890;296164;-76
2022/05/24 00:11:46;;;;;;;2.63;1.50;;;21.00;51.40;;;;;;20615;6890;117598;-76
2022/05/24 00:14:12;;;;;;;2.83;1.47;;;20.90;51.70;;;;;;20591;6890;119360;-76
2022/05/24 00:16:37;;;;;;;1.70;1.30;;;20.70;52.20;;;;;;20394;6890;309489;-78
2022/05/24 00:19:04;;;;;;;1.50;1.40;;;21.10;51.20;;;;;;20408;6890;311819;-77
2022/05/24 00:21:29;;;;;;;2.25;1.50;;;21.10;51.20;;;;;;20402;6890;279358;-76
2022/05/24 00:23:55;;;;;;;1.50;1.40;;;21.40;51.00;;;;;;20403;6890;308982;-76
2022/05/24 00:26:30;;;;;;;1.63;1.53;;;21.50;50.50;;;;;;20588;6890;119195;-76
2022/05/24 00:28:55;;;;;;;1.60;1.50;;;21.40;51.10;;;;;;20589;6890;117972;-76
2022/05/24 00:31:21;;;;;;;2.07;1.70;;;21.00;51.70;;;;;;20395;6890;339534;-76
2022/05/24 00:33:46;;;;;;;2.12;1.50;;;21.10;51.60;;;;;;20384;6890;280743;-76
2022/05/24 00:36:12;;;;;;;2.55;1.60;;;21.30;51.10;;;;;;20384;6890;310850;-77
2022/05/24 00:38:38;;;;;;;2.47;1.40;;;21.50;50.90;;;;;;20593;6890;118251;-76
2022/05/24 00:41:27;;;;;;;1.80;1.40;;;21.30;51.30;;;;;;20398;6890;309346;-76
2022/05/24 00:43:55;;;;;;;1.63;1.50;;;21.30;50.80;;;;;;20599;6890;117792;-77
2022/05/24 00:46:40;;;;;;;2.83;1.40;;;21.20;51.50;;;;;;20545;6888;122654;-77
2022/05/24 00:49:09;;;;;;;2.40;1.40;;;20.90;52.00;;;;;;20369;6889;279283;-77
2022/05/24 00:51:34;;;;;;;2.03;1.45;;;21.10;51.60;;;;;;20384;6889;315207;-76
2022/05/24 00:54:00;;;;;;;3.53;1.40;;;21.40;51.00;;;;;;20592;6889;117927;-77
2022/05/24 00:56:46;;;;;;;1.37;1.30;;;21.30;51.40;;;;;;20615;6889;117794;-76
2022/05/24 00:59:15;;;;;;;1.50;1.40;;;21.10;51.60;;;;;;20361;6889;294097;-77
2022/05/24 01:01:41;;;;;;;2.43;1.50;;;21.30;51.10;;;;;;20377;6889;280524;-78
2022/05/24 01:04:07;;;;;;;2.40;1.50;;;21.30;51.20;;;;;;20365;6889;280129;-77
2022/05/24 01:06:32;;;;;;;2.17;1.60;;;21.50;51.10;;;;;;20602;6890;118147;-76
2022/05/24 01:08:59;;;;;;;1.40;1.30;;;21.30;51.40;;;;;;20609;6890;117637;-76
2022/05/24 01:11:25;;;;;;;1.00;1.00;;;21.00;52.10;;;;;;20376;6890;284205;-76
2022/05/24 01:13:50;;;;;;;1.10;1.00;;;21.10;52.00;;;;;;20599;6890;118149;-76
2022/05/24 01:16:17;;;;;;;1.77;1.07;;;21.00;52.30;;;;;;20577;6890;117679;-76
2022/05/24 01:18:43;;;;;;;1.00;0.90;;;20.70;52.70;;;;;;20394;6890;279872;-76
2022/05/24 01:21:08;;;;;;;0.87;0.60;;;20.80;52.40;;;;;;20385;6890;325695;-76
2022/05/24 01:23:46;;;;;;;0.60;0.60;;;21.10;51.90;;;;;;20383;6890;280158;-76
2022/05/24 01:26:34;;;;;;;0.50;0.50;;;21.20;51.20;;;;;;20538;6890;141208;-77
2022/05/24 01:29:00;;;;;;;0.83;0.40;;;21.00;51.80;;;;;;20578;6890;117531;-76
2022/05/24 01:31:26;;;;;;;2.00;0.55;;;20.50;52.50;;;;;;20377;6890;279181;-76
2022/05/24 01:36:37;;;;;;;1.10;0.60;;;20.80;52.20;;;;;;20395;6890;310895;-76
2022/05/24 01:39:03;;;;;;;0.53;0.53;;;21.00;51.60;;;;;;20606;6890;121332;-77
2022/05/24 01:41:35;;;;;;;1.90;0.40;;;20.90;52.10;;;;;;20380;6890;283936;-76
2022/05/24 01:44:02;;;;;;;0.30;0.30;;;20.90;52.00;;;;;;20593;6890;117751;-77
2022/05/24 01:46:32;;;;;;;1.02;0.50;;;20.70;52.30;;;;;;20389;6890;338495;-77
2022/05/24 01:48:57;;;;;;;0.83;0.50;;;20.70;52.30;;;;;;20596;6890;117991;-77
2022/05/24 01:51:23;;;;;;;0.85;0.43;;;20.60;52.70;;;;;;20380;6890;280726;-77
2022/05/24 01:53:49;;;;;;;0.90;0.40;;;20.70;52.70;;;;;;20391;6890;279537;-76
2022/05/24 01:56:14;;;;;;;0.40;0.40;;;20.80;52.10;;;;;;20571;6890;145319;-76
2022/05/24 01:58:42;;;;;;;1.20;0.47;;;20.40;53.20;;;;;;20604;6888;117579;-77
2022/05/24 02:01:07;;;;;;;0.40;0.40;;;20.40;53.20;;;;;;20603;6889;118793;-77
2022/05/24 02:03:33;;;;;;;0.43;0.43;;;20.20;53.80;;;;;;20582;6889;118769;-76
2022/05/24 02:05:58;;;;;;;2.50;0.40;;;20.00;54.30;;;;;;20585;6889;118003;-78
2022/05/24 02:08:24;;;;;;;1.40;0.50;;;19.90;54.70;;;;;;20605;6889;117511;-77
2022/05/24 02:10:53;;;;;;;0.60;0.60;;;19.80;54.90;;;;;;20598;6889;118027;-76
2022/05/24 02:13:21;;;;;;;0.47;0.47;;;19.70;55.20;;;;;;20597;6889;118542;-77
2022/05/24 02:15:46;;;;;;;0.67;0.60;;;19.60;55.40;;;;;;20382;6889;310973;-77
2022/05/24 02:18:12;;;;;;;0.70;0.35;;;19.90;55.10;;;;;;20367;6890;309514;-78
2022/05/24 02:20:38;;;;;;;1.40;0.57;;;20.60;53.30;;;;;;20384;6890;279213;-76
2022/05/24 02:23:04;;;;;;;1.60;0.50;;;20.60;53.30;;;;;;20382;6890;309489;-77
2022/05/24 02:25:36;;;;;;;1.20;0.53;;;20.80;52.90;;;;;;20399;6890;309914;-78
2022/05/24 02:28:02;;;;;;;0.50;0.40;;;20.90;52.40;;;;;;20574;6890;118406;-77
2022/05/24 02:30:29;;;;;;;1.67;0.50;;;20.70;52.90;;;;;;20606;6890;117792;-77
2022/05/24 02:32:55;;;;;;;0.95;0.50;;;20.30;53.60;;;;;;20399;6890;338791;-77
2022/05/24 02:35:20;;;;;;;0.60;0.40;;;20.30;53.60;;;;;;20390;6890;298032;-76
2022/05/24 02:37:47;;;;;;;0.57;0.40;;;20.30;53.50;;;;;;20614;6890;122129;-77
2022/05/24 02:42:58;;;;;;;0.30;0.30;;;19.90;54.00;;;;;;20596;6890;117567;-75
2022/05/24 02:45:24;;;;;;;0.50;0.50;;;19.80;55.00;;;;;;20400;6890;280607;-76
2022/05/24 02:47:50;;;;;;;1.12;0.62;;;19.70;54.90;;;;;;20396;6890;309343;-77
2022/05/24 02:50:16;;;;;;;0.50;0.40;;;20.00;54.40;;;;;;20372;6890;306780;-76
2022/05/24 02:52:42;;;;;;;0.70;0.70;;;20.20;53.80;;;;;;20399;6890;280284;-76
2022/05/24 02:55:08;;;;;;;0.60;0.50;;;20.40;53.80;;;;;;20392;6890;294009;-76
2022/05/24 02:57:33;;;;;;;0.90;0.70;;;20.50;53.30;;;;;;20392;6890;280528;-76
2022/05/24 02:59:59;;;;;;;0.70;0.60;;;20.60;53.30;;;;;;20377;6890;338473;-78
2022/05/24 03:02:24;;;;;;;0.70;0.70;;;20.60;53.10;;;;;;20394;6890;301427;-76
2022/05/24 03:04:50;;;;;;;0.87;0.80;;;20.70;53.30;;;;;;20607;6890;117674;-76
2022/05/24 03:09:53;;;;;;;0.73;0.70;;;20.10;54.30;;;;;;19364;7235;323067;-76
2022/05/24 03:15:05;;;;;;;1.73;1.00;;;20.40;54.00;;;;;;20395;6889;301787;-76
2022/05/24 03:17:30;;;;;;;1.13;0.70;;;20.60;53.50;;;;;;20600;6889;117491;-77
2022/05/24 03:19:56;;;;;;;0.90;0.90;;;20.40;53.80;;;;;;20608;6889;117370;-76
2022/05/24 03:22:21;;;;;;;0.80;0.80;;;20.00;54.60;;;;;;20584;6889;117066;-76
2022/05/24 03:24:47;;;;;;;0.82;0.82;;;19.80;55.40;;;;;;20395;6889;280080;-74
2022/05/24 03:27:13;;;;;;;1.50;0.70;;;19.90;55.20;;;;;;20396;6889;338103;-76
2022/05/24 03:29:40;;;;;;;0.62;0.60;;;20.10;54.80;;;;;;20576;6890;117767;-76
2022/05/24 03:32:06;;;;;;;0.87;0.87;;;20.10;54.70;;;;;;20584;6890;118712;-77
2022/05/24 03:34:31;;;;;;;0.50;0.50;;;19.90;55.30;;;;;;20611;6890;117469;-76
2022/05/24 03:36:57;;;;;;;1.53;0.70;;;19.60;55.80;;;;;;20408;6890;280803;-76
2022/05/24 03:39:22;;;;;;;1.10;0.65;;;19.80;55.80;;;;;;20388;6890;281031;-79
2022/05/24 03:41:49;;;;;;;0.77;0.70;;;20.10;55.00;;;;;;20399;6890;308706;-77
2022/05/24 03:44:15;;;;;;;0.60;0.60;;;20.40;54.30;;;;;;20384;6890;299930;-77
2022/05/24 03:46:41;;;;;;;0.60;0.60;;;20.50;53.70;;;;;;20612;6890;119447;-77
2022/05/24 03:49:06;;;;;;;0.88;0.88;;;20.40;54.20;;;;;;20613;6890;117895;-77
2022/05/24 03:51:32;;;;;;;1.08;1.02;;;20.00;54.80;;;;;;20402;6890;309311;-77
2022/05/24 03:53:57;;;;;;;1.23;1.23;;;20.10;54.30;;;;;;20385;6890;341320;-78
2022/05/24 03:56:24;;;;;;;2.00;1.20;;;20.40;53.50;;;;;;20359;6905;283307;-77
2022/05/24 03:58:50;;;;;;;1.27;1.17;;;20.60;53.20;;;;;;20602;6890;119500;-77
2022/05/24 04:01:15;;;;;;;1.48;1.25;;;20.40;53.60;;;;;;20609;6890;117796;-77
2022/05/24 04:03:41;;;;;;;1.70;0.87;;;20.10;54.20;;;;;;20612;6890;118027;-77
2022/05/24 04:06:06;;;;;;;1.57;1.20;;;19.90;54.90;;;;;;20390;6890;282501;-77
2022/05/24 04:08:32;;;;;;;1.30;1.10;;;20.00;54.60;;;;;;20396;6890;320481;-77
2022/05/24 04:11:07;;;;;;;1.00;1.00;;;20.30;53.70;;;;;;20606;6890;116571;-77
2022/05/24 04:13:33;;;;;;;1.33;1.23;;;20.20;53.90;;;;;;20394;6890;309966;-77
2022/05/24 04:15:59;;;;;;;1.73;1.10;;;20.30;53.60;;;;;;20591;6890;117340;-77
2022/05/24 04:18:24;;;;;;;1.10;1.00;;;20.20;53.90;;;;;;20617;6890;117924;-77
2022/05/24 04:20:50;;;;;;;1.40;1.30;;;19.90;54.30;;;;;;20624;6888;117337;-77
2022/05/24 04:23:16;;;;;;;1.50;1.40;;;19.70;54.80;;;;;;20616;6889;117675;-76
2022/05/24 04:25:41;;;;;;;1.30;1.20;;;19.60;55.20;;;;;;20401;6889;280098;-77
2022/05/24 04:28:06;;;;;;;1.10;1.10;;;19.80;54.30;;;;;;20599;6889;118055;-78
2022/05/24 04:30:32;;;;;;;1.77;1.15;;;19.80;54.30;;;;;;20592;6889;124083;-78
2022/05/24 04:32:59;;;;;;;1.43;1.00;;;19.50;55.00;;;;;;20612;6889;117946;-77
2022/05/24 04:35:25;;;;;;;1.40;1.30;;;19.50;54.80;;;;;;20409;6889;282846;-79
2022/05/24 04:37:51;;;;;;;1.27;1.20;;;20.10;53.20;;;;;;20415;6889;280197;-78
2022/05/24 04:40:17;;;;;;;1.20;1.20;;;20.10;53.20;;;;;;20592;6890;117865;-77
2022/05/24 04:42:44;;;;;;;1.40;1.30;;;20.00;53.30;;;;;;20409;6890;309743;-77
2022/05/24 04:45:09;;;;;;;1.63;1.37;;;20.10;52.50;;;;;;20615;6890;118171;-75
2022/05/24 04:47:35;;;;;;;1.50;1.40;;;20.10;53.00;;;;;;20390;6890;309784;-74
2022/05/24 04:50:03;;;;;;;2.03;1.40;;;20.40;53.10;;;;;;20387;6890;281433;-76
2022/05/24 04:52:28;;;;;;;1.62;1.52;;;20.40;52.30;;;;;;20395;6890;308563;-72
2022/05/24 04:54:55;;;;;;;1.50;1.40;;;20.60;51.80;;;;;;20605;6890;117487;-76
2022/05/24 04:57:21;;;;;;;1.58;1.48;;;20.40;52.30;;;;;;20398;6890;321215;-75
2022/05/24 04:59:46;;;;;;;2.47;1.70;;;20.40;52.00;;;;;;20606;6890;118595;-73
2022/05/24 05:02:12;;;;;;;2.07;1.50;;;20.30;52.60;;;;;;20381;6890;309822;-73
2022/05/24 05:04:38;;;;;;;1.73;1.63;;;20.50;52.20;;;;;;20404;6890;338939;-75
2022/05/24 05:07:04;;;;;;;1.60;1.27;;;20.70;52.00;;;;;;20407;6890;302193;-73
2022/05/24 05:09:34;;;;;;;1.37;1.27;;;20.70;52.00;;;;;;20607;6890;118774;-72
2022/05/24 05:12:06;;;;;;;1.70;1.50;;;20.50;52.50;;;;;;20386;6890;309446;-73
2022/05/24 05:14:31;;;;;;;1.83;1.50;;;20.50;52.50;;;;;;20397;6890;309878;-75
2022/05/24 05:16:57;;;;;;;1.55;1.45;;;20.70;52.20;;;;;;20402;6890;311450;-77
2022/05/24 05:19:22;;;;;;;1.40;1.27;;;20.80;51.90;;;;;;20616;6890;117546;-72
2022/05/24 05:21:48;;;;;;;2.42;1.35;;;20.60;52.30;;;;;;20420;6890;280267;-74
2022/05/24 05:24:14;;;;;;;1.87;1.77;;;20.70;52.60;;;;;;20606;6890;120666;-72
2022/05/24 05:26:39;;;;;;;1.67;1.58;;;20.50;53.00;;;;;;20406;6890;309378;-72
2022/05/24 05:29:06;;;;;;;2.55;1.60;;;20.60;53.30;;;;;;20402;6890;309035;-72
2022/05/24 05:31:32;;;;;;;1.30;1.30;;;20.80;53.00;;;;;;20621;6888;117672;-72
2022/05/24 05:33:57;;;;;;;1.50;1.40;;;20.70;53.30;;;;;;20408;6889;338976;-72
2022/05/24 05:36:24;;;;;;;1.95;1.55;;;20.70;53.50;;;;;;20403;6889;281557;-72
2022/05/24 05:38:49;;;;;;;1.52;1.42;;;20.90;52.90;;;;;;20393;6889;299770;-72
2022/05/24 05:41:15;;;;;;;1.90;1.50;;;21.00;52.70;;;;;;20403;6889;279806;-72
2022/05/24 05:43:40;;;;;;;1.90;1.80;;;21.20;52.10;;;;;;20400;6889;309907;-71
2022/05/24 05:46:07;;;;;;;1.70;1.60;;;21.30;52.20;;;;;;20574;6889;119728;-72
2022/05/24 05:48:32;;;;;;;1.80;1.70;;;21.10;52.50;;;;;;20403;6889;279457;-71
2022/05/24 05:50:58;;;;;;;3.03;1.50;;;21.10;51.70;;;;;;20611;6889;117481;-72
2022/05/24 05:53:24;;;;;;;1.50;1.33;;;21.10;52.20;;;;;;20407;6890;339469;-71
2022/05/24 05:55:49;;;;;;;1.63;1.53;;;21.20;51.80;;;;;;20404;6890;339524;-72
2022/05/24 05:58:15;;;;;;;3.10;1.52;;;21.50;51.20;;;;;;20393;6890;281744;-72
2022/05/24 06:00:41;;;;;;;1.67;1.57;;;21.60;50.60;;;;;;20405;6890;314732;-72
2022/05/24 06:03:07;;;;;;;1.37;1.23;;;21.50;51.30;;;;;;20608;6890;117523;-72
2022/05/24 06:05:32;;;;;;;3.62;1.60;;;21.50;51.00;;;;;;20404;6890;309384;-72
2022/05/24 06:07:58;;;;;;;2.10;1.67;;;21.50;50.90;;;;;;20390;6890;280197;-73
2022/05/24 06:10:23;;;;;;;1.90;1.60;;;21.70;50.80;;;;;;20613;6890;118788;-74
2022/05/24 06:12:51;;;;;;;1.43;1.33;;;21.20;52.00;;;;;;20606;6890;118211;-74
2022/05/24 06:15:17;;;;;;;1.57;1.43;;;21.20;52.00;;;;;;20411;6890;309700;-75
2022/05/24 06:17:44;;;;;;;1.50;1.40;;;21.30;52.10;;;;;;20615;6890;118785;-78
2022/05/24 06:20:09;;;;;;;1.55;1.45;;;21.30;52.10;;;;;;20329;6890;324430;-74
2022/05/24 06:22:34;;;;;;;1.50;1.40;;;21.40;52.00;;;;;;20608;6890;118604;-74
2022/05/24 06:25:01;;;;;;;1.75;1.45;;;21.40;52.40;;;;;;20386;6890;279778;-75
2022/05/24 06:27:28;;;;;;;2.00;1.40;;;21.40;52.80;;;;;;20593;6890;117812;-76
2022/05/24 06:29:53;;;;;;;1.67;1.50;;;21.40;52.80;;;;;;20608;6890;119363;-75
2022/05/24 06:32:19;;;;;;;3.03;1.60;;;21.60;53.00;;;;;;20384;6890;282321;-75
2022/05/24 06:34:48;;;;;;;1.40;1.30;;;21.60;52.30;;;;;;20409;6890;279720;-75
2022/05/24 06:37:11;;;;;;;2.05;1.50;;;22.10;51.10;;;;;;20373;6890;323425;-75
2022/05/24 06:39:37;;;;;;;1.57;1.40;;;22.50;50.80;;;;;;20614;6890;117899;-75
2022/05/24 06:42:03;;;;;;;1.53;1.43;;;22.60;51.20;;;;;;20589;6890;118309;-75
2022/05/24 06:44:29;;;;;;;1.53;1.40;;;22.40;51.90;;;;;;20619;6887;120355;-75
2022/05/24 06:46:54;;;;;;;1.43;1.43;;;22.50;52.50;;;;;;20616;6889;119041;-75
2022/05/24 06:49:20;;;;;;;3.37;1.70;;;22.80;52.80;;;;;;20411;6889;280148;-75
2022/05/24 06:51:45;;;;;;;2.13;1.30;;;23.60;47.40;;;;;;20610;6889;117957;-75
2022/05/24 06:54:12;;;;;;;2.50;1.48;;;23.80;47.90;;;;;;20596;6889;117544;-75
2022/05/24 06:56:38;;;;;;;1.20;0.90;;;23.80;47.80;;;;;;20614;6889;117864;-78
2022/05/24 07:04:35;;;;;;;1.53;1.37;;;23.40;46.00;;;;;;20620;6890;117686;-73
2022/05/24 07:07:00;;;;;;;1.40;1.23;;;23.30;47.20;;;;;;20404;6890;314638;-73
2022/05/24 07:09:31;;;;;;;2.13;1.10;;;23.30;46.70;;;;;;20617;6890;117896;-74
2022/05/24 07:11:53;;;;;;;1.00;1.00;;;23.20;46.90;;;;;;20607;6890;117403;-72
2022/05/24 07:14:20;;;;;;;2.45;1.12;;;22.90;46.90;;;;;;20602;6890;117983;-71
2022/05/24 07:16:45;;;;;;;3.40;1.50;;;22.60;47.10;;;;;;20616;6890;117776;-72
2022/05/24 07:19:11;;;;;;;1.03;1.03;;;22.30;47.40;;;;;;20618;6890;117332;-71
2022/05/24 07:21:36;;;;;;;1.40;1.30;;;22.10;48.40;;;;;;20403;6890;310286;-72
2022/05/24 07:24:02;;;;;;;2.00;1.17;;;22.20;46.30;;;;;;20594;6890;120929;-74
2022/05/24 07:26:28;;;;;;;1.57;1.30;;;22.10;46.80;;;;;;20405;6890;281748;-71
2022/05/24 07:28:54;;;;;;;1.47;1.20;;;22.10;46.80;;;;;;20617;6890;119531;-71
2022/05/24 07:31:19;;;;;;;3.03;1.30;;;21.80;47.20;;;;;;20405;6890;309786;-74
2022/05/24 07:33:45;;;;;;;1.20;1.10;;;21.80;47.90;;;;;;20396;6890;342027;-73
2022/05/24 07:36:11;;;;;;;0.97;0.90;;;21.80;48.00;;;;;;20599;6890;117569;-72
2022/05/24 07:38:37;;;;;;;3.00;0.90;;;21.50;48.60;;;;;;20615;6890;117471;-72
2022/05/24 07:46:35;;;;;;;2.63;0.90;;;20.40;49.90;;;;;;20394;6890;309988;-73
2022/05/24 07:49:00;;;;;;;4.10;0.80;;;20.50;48.30;;;;;;20611;6890;117324;-72
2022/05/24 07:51:26;;;;;;;1.37;0.70;;;20.20;49.00;;;;;;20399;6890;282650;-73
2022/05/24 07:53:52;;;;;;;2.17;0.80;;;20.50;48.70;;;;;;20407;6890;310612;-73
2022/05/24 07:56:19;;;;;;;2.20;0.70;;;20.40;48.60;;;;;;20595;6888;117535;-74
2022/05/24 07:58:43;;;;;;;0.90;0.70;;;20.40;49.10;;;;;;20613;6889;117169;-75
2022/05/24 08:01:10;;;;;;;0.50;0.50;;;20.10;49.70;;;;;;20403;6889;309903;-75
2022/05/24 08:03:35;;;;;;;0.60;0.60;;;20.20;48.60;;;;;;20619;6889;117400;-75
2022/05/24 08:06:05;;;;;;;0.95;0.30;;;20.00;49.60;;;;;;20594;6889;119401;-77
2022/05/24 08:08:30;;;;;;;1.13;0.60;;;20.00;49.60;;;;;;20609;6889;117563;-75
2022/05/24 08:10:56;;;;;;;0.40;0.30;;;19.80;49.80;;;;;;20613;6889;122397;-74
2022/05/24 08:13:22;;;;;;;1.70;0.47;;;19.60;50.00;;;;;;20405;6889;281502;-74
2022/05/24 08:15:51;;;;;;;0.40;0.40;;;19.90;47.40;;;;;;20399;6890;339692;-75
2022/05/24 08:18:16;;;;;;;0.60;0.30;;;20.20;46.10;;;;;;20585;6890;127494;-73
2022/05/24 08:20:43;;;;;;;0.53;0.30;;;20.20;47.00;;;;;;20608;6890;117748;-73
2022/05/24 08:23:08;;;;;;;0.60;0.30;;;20.00;47.60;;;;;;20394;6890;339385;-73
2022/05/24 08:25:34;;;;;;;0.87;0.30;;;20.20;45.60;;;;;;20400;6890;309864;-74
2022/05/24 08:28:02;;;;;;;0.20;0.20;;;20.60;44.80;;;;;;20601;6890;120763;-74
2022/05/24 08:30:25;;;;;;;0.60;0.30;;;20.70;45.80;;;;;;20388;6890;313967;-73
2022/05/24 08:32:51;;;;;;;0.77;0.30;;;21.50;44.90;;;;;;20404;6890;309737;-73
2022/05/24 08:35:17;;;;;;;0.50;0.30;;;21.40;44.80;;;;;;20621;6890;117963;-74
2022/05/24 08:37:42;;;;;;;0.30;0.30;;;21.60;44.80;;;;;;20398;6890;341117;-74
2022/05/24 08:40:08;;;;;;;1.30;0.40;;;21.80;42.70;;;;;;20376;6890;309660;-74
2022/05/24 08:42:58;;;;;;;1.13;0.27;;;22.10;42.20;;;;;;20610;6890;117474;-74
2022/05/24 08:48:28;;;;;;;2.50;0.30;;;22.20;39.00;;;;;;20389;6890;309360;-75
2022/05/24 08:51:00;;;;;;;0.30;0.30;;;22.30;38.80;;;;;;20610;6890;117338;-75
2022/05/24 08:53:28;;;;;;;1.90;0.30;;;22.00;40.50;;;;;;20600;6890;117322;-74
2022/05/24 08:55:54;;;;;;;0.47;0.33;;;21.60;41.60;;;;;;20389;6890;308798;-75
2022/05/24 08:58:29;;;;;;;0.80;0.30;;;21.60;39.40;;;;;;20393;6890;310195;-74
2022/05/24 09:00:55;;;;;;;0.37;0.30;;;21.60;40.80;;;;;;20575;6890;117254;-75
2022/05/24 09:03:24;;;;;;;0.40;0.30;;;21.50;40.50;;;;;;20407;6890;309411;-75
2022/05/24 09:05:47;;;;;;;2.03;0.43;;;21.40;41.50;;;;;;20611;6890;117944;-74
2022/05/24 09:08:19;;;;;;;0.40;0.23;;;21.40;41.50;;;;;;20593;6888;118409;-74
2022/05/24 09:10:54;;;;;;;0.50;0.50;;;21.00;42.80;;;;;;20588;6889;117669;-74
2022/05/24 09:13:56;;;;;;;0.53;0.40;;;21.00;42.80;;;;;;20519;6889;117231;-74
2022/05/24 09:16:22;;;;;;;0.40;0.40;;;21.30;41.60;;;;;;19305;7260;293179;-73
2022/05/24 09:18:57;;;;;;;1.10;0.52;;;21.30;41.60;;;;;;19303;7260;343661;-74
2022/05/24 09:21:26;;;;;;;0.50;0.37;;;21.80;40.80;;;;;;19405;6904;324258;-74
2022/05/24 09:24:05;;;;;;;1.50;0.30;;;22.30;40.40;;;;;;20350;6905;317022;-75
2022/05/24 09:26:34;;;;;;;1.30;0.40;;;22.70;39.00;;;;;;20598;6890;117516;-75
2022/05/24 09:28:56;;;;;;;0.20;0.20;;;22.60;40.40;;;;;;20606;6890;117918;-75
2022/05/24 09:31:32;;;;;;;0.20;0.20;;;22.50;41.20;;;;;;20609;6890;119610;-75
2022/05/24 09:33:57;;;;;;;0.37;0.37;;;22.50;41.70;;;;;;20392;6890;340645;-74
2022/05/24 09:36:23;;;;;;;0.35;0.32;;;22.80;39.20;;;;;;20383;6890;280034;-74
2022/05/24 09:38:48;;;;;;;0.50;0.40;;;23.30;37.70;;;;;;20301;6890;338098;-74
2022/05/24 09:41:16;;;;;;;1.03;0.50;;;23.60;37.10;;;;;;20606;6890;120940;-74
2022/05/24 09:43:42;;;;;;;0.20;0.20;;;23.60;38.70;;;;;;20622;6890;117891;-74
2022/05/24 09:46:11;;;;;;;0.43;0.43;;;23.50;38.90;;;;;;20385;6890;338925;-75
2022/05/24 09:48:37;;;;;;;0.30;0.30;;;23.60;35.90;;;;;;20493;6890;117464;-73
2022/05/24 09:51:03;;;;;;;0.90;0.40;;;23.80;37.90;;;;;;20362;6890;324497;-74
2022/05/24 09:53:28;;;;;;;0.77;0.30;;;23.90;36.80;;;;;;20400;6890;308509;-74
2022/05/24 09:56:04;;;;;;;1.33;0.40;;;24.10;34.90;;;;;;20605;6890;118639;-74
2022/05/24 09:58:37;;;;;;;0.50;0.40;;;24.00;36.90;;;;;;20583;6890;118576;-75
2022/05/24 10:01:09;;;;;;;0.40;0.40;;;23.90;37.60;;;;;;20604;6890;117897;-74
2022/05/24 10:03:37;;;;;;;0.60;0.40;;;23.60;38.20;;;;;;20389;6890;308884;-74
2022/05/24 10:06:19;;;;;;;1.87;0.47;;;23.80;36.40;;;;;;20600;6890;120375;-74
2022/05/24 10:09:11;;;;;;;0.77;0.33;;;23.90;37.20;;;;;;20598;6890;117468;-75
2022/05/24 10:11:36;;;;;;;0.37;0.37;;;23.70;38.20;;;;;;20616;6890;116618;-75
2022/05/24 10:14:16;;;;;;;0.45;0.45;;;23.50;39.40;;;;;;20574;6890;117835;-76
2022/05/24 10:16:44;;;;;;;1.10;0.37;;;23.20;38.50;;;;;;20602;6890;118294;-75
2022/05/24 10:19:26;;;;;;;0.23;0.23;;;23.10;39.00;;;;;;20389;6888;304064;-76
2022/05/24 10:22:04;;;;;;;0.93;0.50;;;23.40;37.30;;;;;;20405;6889;279642;-76
2022/05/24 10:24:53;;;;;;;0.37;0.30;;;24.00;37.30;;;;;;19977;6889;312161;-75
2022/05/24 10:27:52;;;;;;;1.00;0.50;;;24.60;36.90;;;;;;20378;6889;308546;-75
2022/05/24 10:30:19;;;;;;;0.40;0.40;;;25.00;34.10;;;;;;20605;6889;120634;-75
2022/05/24 10:38:29;;;;;;;0.97;0.40;;;24.70;37.40;;;;;;20407;6890;309641;-77
2022/05/24 10:41:15;;;;;;;0.87;0.37;;;25.00;35.40;;;;;;20371;6890;309469;-76
2022/05/24 10:44:05;;;;;;;0.40;0.40;;;25.40;34.50;;;;;;20605;6890;117346;-74
2022/05/24 10:46:32;;;;;;;1.50;0.40;;;25.40;35.90;;;;;;20387;6890;311145;-78
2022/05/24 10:49:11;;;;;;;0.37;0.30;;;25.50;33.00;;;;;;20379;6890;309493;-75
2022/05/24 10:51:40;;;;;;;0.30;0.30;;;25.60;34.90;;;;;;20584;6890;117366;-75
2022/05/24 10:54:12;;;;;;;2.10;0.40;;;25.30;34.90;;;;;;20343;6890;324836;-75
2022/05/24 10:56:47;;;;;;;0.30;0.30;;;25.10;33.30;;;;;;20557;6890;118122;-74
2022/05/24 10:59:22;;;;;;;0.40;0.40;;;25.00;34.70;;;;;;20584;6890;118062;-75
2022/05/24 11:01:50;;;;;;;1.55;0.40;;;24.80;35.60;;;;;;20369;6890;331461;-74
2022/05/24 11:04:13;;;;;;;0.37;0.33;;;25.00;33.70;;;;;;20568;6890;117666;-73
2022/05/24 11:06:39;;;;;;;1.08;0.40;;;25.20;34.50;;;;;;20380;6890;280637;-76
2022/05/24 11:09:09;;;;;;;0.20;0.20;;;25.40;33.40;;;;;;20585;6890;118811;-75
2022/05/24 11:12:00;;;;;;;0.50;0.47;;;25.60;34.90;;;;;;20595;6890;117521;-76
2022/05/24 11:14:39;;;;;;;0.53;0.40;;;25.60;35.50;;;;;;20387;6890;312301;-79
2022/05/24 11:17:05;;;;;;;1.10;0.50;;;25.90;32.10;;;;;;20384;6890;309354;-76
2022/05/24 11:19:38;;;;;;;0.40;0.30;;;26.20;31.60;;;;;;20592;6890;118055;-76
2022/05/24 11:22:09;;;;;;;1.07;0.40;;;26.30;32.60;;;;;;20582;6890;117670;-78
2022/05/24 11:24:35;;;;;;;1.23;0.40;;;26.00;32.70;;;;;;20564;6890;118165;-80
2022/05/24 11:27:00;;;;;;;0.30;0.20;;;25.50;33.20;;;;;;20592;6890;117297;-76
2022/05/24 11:29:33;;;;;;;0.68;0.40;;;25.00;35.00;;;;;;20610;6888;118447;-76
2022/05/24 11:31:58;;;;;;;1.00;0.40;;;25.00;34.90;;;;;;20573;6889;118177;-79
2022/05/24 11:34:26;;;;;;;0.50;0.50;;;24.80;35.40;;;;;;20107;6898;294370;-77
2022/05/24 11:37:25;;;;;;;0.63;0.63;;;24.90;32.00;;;;;;20376;6898;309263;-77
2022/05/24 11:39:50;;;;;;;0.70;0.60;;;25.20;31.90;;;;;;20404;6889;279267;-75
2022/05/24 11:42:19;;;;;;;0.47;0.47;;;25.30;30.90;;;;;;20378;6889;309285;-75
2022/05/24 11:44:45;;;;;;;1.30;0.50;;;25.30;31.00;;;;;;20392;6889;297668;-75
2022/05/24 11:47:11;;;;;;;0.53;0.30;;;25.20;31.20;;;;;;20403;6889;279984;-75
2022/05/24 11:49:40;;;;;;;0.50;0.30;;;25.10;30.80;;;;;;20519;6890;118108;-74
2022/05/24 11:52:43;;;;;;;0.40;0.40;;;24.80;32.50;;;;;;20595;6890;118751;-77
2022/05/24 11:55:08;;;;;;;0.47;0.40;;;24.30;33.90;;;;;;20400;6890;281174;-78
2022/05/24 11:57:37;;;;;;;0.60;0.53;;;24.30;32.30;;;;;;20397;6890;298836;-77
2022/05/24 12:00:02;;;;;;;1.10;0.43;;;24.50;33.20;;;;;;20362;6890;311807;-77
2022/05/24 12:02:33;;;;;;;0.37;0.37;;;24.80;32.00;;;;;;20612;6890;118075;-77
2022/05/24 12:07:59;;;;;;;1.90;0.50;;;24.60;31.10;;;;;;20401;6890;291763;-77
2022/05/24 12:10:24;;;;;;;0.50;0.50;;;24.80;32.90;;;;;;19145;7267;296165;-75
2022/05/24 12:12:50;;;;;;;0.70;0.40;;;25.00;32.80;;;;;;19296;7262;353583;-75
2022/05/24 12:15:26;;;;;;;0.73;0.40;;;24.90;33.10;;;;;;19533;6890;119798;-76
2022/05/24 12:17:51;;;;;;;0.47;0.47;;;24.90;33.10;;;;;;20516;6905;117574;-76
2022/05/24 12:20:33;;;;;;;0.70;0.60;;;24.60;34.40;;;;;;20302;6890;280061;-76
2022/05/24 12:23:19;;;;;;;0.40;0.40;;;24.80;34.30;;;;;;20621;6890;118049;-75
2022/05/24 12:26:04;;;;;;;0.40;0.40;;;24.80;34.60;;;;;;20361;6890;309261;-75
2022/05/24 12:28:37;;;;;;;0.60;0.60;;;25.10;33.60;;;;;;20612;6890;117624;-77
2022/05/24 12:31:15;;;;;;;0.50;0.40;;;25.00;33.50;;;;;;20404;6890;325409;-77
2022/05/24 12:33:58;;;;;;;0.43;0.43;;;25.20;34.00;;;;;;20609;6890;120542;-77
2022/05/24 12:36:33;;;;;;;0.30;0.30;;;25.10;33.90;;;;;;20608;6890;118159;-77
2022/05/24 12:39:03;;;;;;;0.40;0.40;;;25.00;35.00;;;;;;20613;6890;117331;-79
2022/05/24 12:41:35;;;;;;;0.60;0.50;;;25.30;31.80;;;;;;20434;6888;280023;-78
2022/05/24 12:44:04;;;;;;;0.50;0.50;;;25.20;31.80;;;;;;20422;6889;278368;-78
2022/05/24 12:46:30;;;;;;;0.63;0.53;;;25.70;32.70;;;;;;20595;6889;117090;-77
2022/05/24 12:48:56;;;;;;;0.40;0.40;;;25.70;32.60;;;;;;20420;6889;308397;-77
2022/05/24 12:51:22;;;;;;;0.83;0.40;;;26.00;29.70;;;;;;20400;6889;315432;-77
2022/05/24 12:53:48;;;;;;;0.40;0.40;;;25.90;29.70;;;;;;20411;6889;279375;-77
2022/05/24 12:56:14;;;;;;;0.47;0.43;;;26.20;29.40;;;;;;20386;6889;294811;-77
2022/05/24 12:58:39;;;;;;;0.50;0.50;;;26.10;29.40;;;;;;20401;6889;338551;-77
2022/05/24 13:01:06;;;;;;;0.77;0.50;;;26.20;28.90;;;;;;20590;6889;117413;-78
2022/05/24 13:03:32;;;;;;;1.90;0.70;;;26.00;30.20;;;;;;20571;6890;117347;-76
2022/05/24 13:05:57;;;;;;;1.13;0.97;;;25.70;31.60;;;;;;20404;6890;309129;-76
2022/05/24 13:08:25;;;;;;;1.58;1.48;;;25.80;31.60;;;;;;20396;6890;321936;-79
2022/05/24 13:10:52;;;;;;;0.70;0.70;;;26.00;29.70;;;;;;20394;6890;309828;-77
2022/05/24 13:13:18;;;;;;;0.60;0.60;;;26.20;30.20;;;;;;20407;6890;308806;-76
2022/05/24 13:15:43;;;;;;;0.60;0.60;;;26.20;29.30;;;;;;20399;6890;280732;-77